sensor_id;sensor_type;location;lat;lon;timestamp;pressure;altitude;pressure_sealevel;temperature;humidity
20987;BME280;10652;50.306;8.570;2023-07-02T00:02:32;97236.75;;;15.80;99.32
20987;BME280;10652;50.306;8.570;2023-07-02T00:06:34;97247.34;;;15.80;99.29
20987;BME280;10652;50.306;8.570;2023-07-02T00:10:43;97241.91;;;15.81;98.56
20987;BME280;10652;50.306;8.570;2023-07-02T00:14:45;97235.06;;;15.78;98.47
20987;BME280;10652;50.306;8.570;2023-07-02T00:18:47;97238.44;;;15.81;98.37
20987;BME280;10652;50.306;8.570;2023-07-02T00:22:54;97247.34;;;15.80;97.66
20987;BME280;10652;50.306;8.570;2023-07-02T00:26:56;97244.44;;;15.83;97.45
20987;BME280;10652;50.306;8.570;2023-07-02T00:30:58;97237.22;;;15.85;97.47
20987;BME280;10652;50.306;8.570;2023-07-02T00:35:01;97237.34;;;15.83;96.65
20987;BME280;10652;50.306;8.570;2023-07-02T00:39:03;97240.47;;;15.77;96.40
20987;BME280;10652;50.306;8.570;2023-07-02T00:43:05;97227.88;;;15.69;97.04
20987;BME280;10652;50.306;8.570;2023-07-02T00:47:08;97241.59;;;15.63;95.65
20987;BME280;10652;50.306;8.570;2023-07-02T00:51:13;97238.09;;;15.52;95.63
20987;BME280;10652;50.306;8.570;2023-07-02T00:55:16;97242.69;;;15.39;95.21
20987;BME280;10652;50.306;8.570;2023-07-02T00:59:18;97235.84;;;15.25;95.38
20987;BME280;10652;50.306;8.570;2023-07-02T01:03:20;97241.00;;;15.15;95.44
20987;BME280;10652;50.306;8.570;2023-07-02T01:07:23;97242.78;;;15.04;95.32
20987;BME280;10652;50.306;8.570;2023-07-02T01:11:35;97238.84;;;14.98;94.81
20987;BME280;10652;50.306;8.570;2023-07-02T01:15:39;97243.75;;;14.92;94.44
20987;BME280;10652;50.306;8.570;2023-07-02T01:19:44;97247.34;;;14.90;94.14
20987;BME280;10652;50.306;8.570;2023-07-02T01:23:47;97240.84;;;14.83;94.51
20987;BME280;10652;50.306;8.570;2023-07-02T01:27:50;97240.72;;;14.74;93.96
20987;BME280;10652;50.306;8.570;2023-07-02T01:31:52;97247.78;;;14.62;94.09
20987;BME280;10652;50.306;8.570;2023-07-02T01:35:54;97238.09;;;14.50;94.88
20987;BME280;10652;50.306;8.570;2023-07-02T01:39:56;97238.09;;;14.39;95.67
20987;BME280;10652;50.306;8.570;2023-07-02T01:43:58;97232.75;;;14.28;97.05
20987;BME280;10652;50.306;8.570;2023-07-02T01:48:00;97237.88;;;14.18;98.34
20987;BME280;10652;50.306;8.570;2023-07-02T01:52:03;97239.63;;;14.07;99.58
20987;BME280;10652;50.306;8.570;2023-07-02T01:56:06;97235.03;;;13.97;100.00
20987;BME280;10652;50.306;8.570;2023-07-02T02:00:08;97232.00;;;13.91;100.00
20987;BME280;10652;50.306;8.570;2023-07-02T02:04:16;97242.88;;;13.86;100.00
20987;BME280;10652;50.306;8.570;2023-07-02T02:08:19;97230.16;;;13.80;100.00
20987;BME280;10652;50.306;8.570;2023-07-02T02:12:21;97231.31;;;13.76;100.00
20987;BME280;10652;50.306;8.570;2023-07-02T02:16:23;97235.25;;;13.71;100.00
20987;BME280;10652;50.306;8.570;2023-07-02T02:20:26;97247.09;;;13.65;100.00
20987;BME280;10652;50.306;8.570;2023-07-02T02:24:28;97251.75;;;13.62;100.00
20987;BME280;10652;50.306;8.570;2023-07-02T02:28:30;97258.81;;;13.61;100.00
20987;BME280;10652;50.306;8.570;2023-07-02T02:32:32;97258.81;;;13.61;100.00
20987;BME280;10652;50.306;8.570;2023-07-02T02:36:35;97255.44;;;13.59;100.00
20987;BME280;10652;50.306;8.570;2023-07-02T02:40:37;97269.38;;;13.61;100.00
20987;BME280;10652;50.306;8.570;2023-07-02T02:44:42;97264.31;;;13.58;100.00
20987;BME280;10652;50.306;8.570;2023-07-02T02:48:44;97274.38;;;13.53;100.00
20987;BME280;10652;50.306;8.570;2023-07-02T02:52:46;97274.84;;;13.45;100.00
20987;BME280;10652;50.306;8.570;2023-07-02T02:56:49;97277.72;;;13.55;100.00
20987;BME280;10652;50.306;8.570;2023-07-02T03:00:51;97274.72;;;13.72;100.00
20987;BME280;10652;50.306;8.570;2023-07-02T03:04:53;97279.66;;;13.89;100.00
20987;BME280;10652;50.306;8.570;2023-07-02T03:08:55;97277.66;;;14.04;100.00
20987;BME280;10652;50.306;8.570;2023-07-02T03:12:57;97285.56;;;14.17;100.00
20987;BME280;10652;50.306;8.570;2023-07-02T03:17:00;97282.22;;;14.26;100.00
20987;BME280;10652;50.306;8.570;2023-07-02T03:21:02;97278.16;;;14.33;98.56
20987;BME280;10652;50.306;8.570;2023-07-02T03:25:05;97283.44;;;14.33;94.97
20987;BME280;10652;50.306;8.570;2023-07-02T03:29:07;97286.84;;;14.35;93.95
20987;BME280;10652;50.306;8.570;2023-07-02T03:33:09;97278.84;;;14.24;91.16
20987;BME280;10652;50.306;8.570;2023-07-02T03:37:14;97288.88;;;14.08;90.40
20987;BME280;10652;50.306;8.570;2023-07-02T03:41:16;97288.03;;;13.94;90.55
20987;BME280;10652;50.306;8.570;2023-07-02T03:45:18;97294.22;;;13.82;89.81
20987;BME280;10652;50.306;8.570;2023-07-02T03:49:20;97293.72;;;13.77;89.93
20987;BME280;10652;50.306;8.570;2023-07-02T03:53:22;97298.13;;;13.77;89.67
20987;BME280;10652;50.306;8.570;2023-07-02T03:57:24;97296.88;;;13.82;88.67
20987;BME280;10652;50.306;8.570;2023-07-02T04:01:28;97292.09;;;13.87;88.89
20987;BME280;10652;50.306;8.570;2023-07-02T04:05:30;97299.34;;;13.96;88.24
20987;BME280;10652;50.306;8.570;2023-07-02T04:09:32;97308.31;;;14.07;88.26
20987;BME280;10652;50.306;8.570;2023-07-02T04:13:34;97307.84;;;14.13;87.74
20987;BME280;10652;50.306;8.570;2023-07-02T04:17:37;97321.44;;;14.19;87.10
20987;BME280;10652;50.306;8.570;2023-07-02T04:21:39;97325.66;;;14.22;85.92
20987;BME280;10652;50.306;8.570;2023-07-02T04:25:41;97323.53;;;14.27;85.66
20987;BME280;10652;50.306;8.570;2023-07-02T04:30:04;97337.41;;;14.41;84.87
20987;BME280;10652;50.306;8.570;2023-07-02T04:34:07;97344.06;;;14.47;83.99
20987;BME280;10652;50.306;8.570;2023-07-02T04:38:09;97350.56;;;14.54;83.10
20987;BME280;10652;50.306;8.570;2023-07-02T04:42:11;97353.34;;;14.53;83.05
20987;BME280;10652;50.306;8.570;2023-07-02T04:46:15;97359.03;;;14.59;82.74
20987;BME280;10652;50.306;8.570;2023-07-02T04:50:20;97351.84;;;14.61;82.51
20987;BME280;10652;50.306;8.570;2023-07-02T04:54:22;97342.03;;;14.74;82.88
20987;BME280;10652;50.306;8.570;2023-07-02T04:58:25;97349.91;;;14.98;81.87
20987;BME280;10652;50.306;8.570;2023-07-02T05:02:27;97355.63;;;15.27;81.84
20987;BME280;10652;50.306;8.570;2023-07-02T05:06:29;97364.72;;;15.69;79.54
20987;BME280;10652;50.306;8.570;2023-07-02T05:10:31;97358.84;;;18.17;73.62
20987;BME280;10652;50.306;8.570;2023-07-02T05:14:33;97361.38;;;17.79;67.89
20987;BME280;10652;50.306;8.570;2023-07-02T05:18:36;97367.50;;;17.28;67.87
20987;BME280;10652;50.306;8.570;2023-07-02T05:22:38;97372.78;;;16.87;68.80
20987;BME280;10652;50.306;8.570;2023-07-02T05:26:40;97386.63;;;16.70;68.60
20987;BME280;10652;50.306;8.570;2023-07-02T05:30:42;97376.19;;;16.57;68.92
20987;BME280;10652;50.306;8.570;2023-07-02T05:34:44;97366.69;;;17.79;67.91
20987;BME280;10652;50.306;8.570;2023-07-02T05:38:46;97366.50;;;19.08;64.09
20987;BME280;10652;50.306;8.570;2023-07-02T05:42:48;97385.41;;;18.48;60.62
20987;BME280;10652;50.306;8.570;2023-07-02T05:46:50;97377.09;;;17.91;61.85
20987;BME280;10652;50.306;8.570;2023-07-02T05:50:53;97387.16;;;17.58;62.78
20987;BME280;10652;50.306;8.570;2023-07-02T05:54:55;97390.53;;;17.99;63.52
20987;BME280;10652;50.306;8.570;2023-07-02T05:58:57;97393.50;;;19.71;59.56
20987;BME280;10652;50.306;8.570;2023-07-02T06:03:00;97392.94;;;20.86;53.68
20987;BME280;10652;50.306;8.570;2023-07-02T06:07:02;97402.00;;;22.66;50.22
20987;BME280;10652;50.306;8.570;2023-07-02T06:11:04;97399.16;;;22.00;49.64
20987;BME280;10652;50.306;8.570;2023-07-02T06:15:07;97404.34;;;22.77;47.31
20987;BME280;10652;50.306;8.570;2023-07-02T06:19:09;97415.00;;;23.67;46.74
20987;BME280;10652;50.306;8.570;2023-07-02T06:23:11;97409.63;;;23.35;44.88
20987;BME280;10652;50.306;8.570;2023-07-02T06:27:13;97425.28;;;22.73;46.10
20987;BME280;10652;50.306;8.570;2023-07-02T06:31:15;97420.75;;;22.32;47.17
20987;BME280;10652;50.306;8.570;2023-07-02T06:35:18;97414.47;;;22.15;46.78
20987;BME280;10652;50.306;8.570;2023-07-02T06:39:20;97423.78;;;22.29;47.94
20987;BME280;10652;50.306;8.570;2023-07-02T06:43:22;97424.03;;;23.18;45.76
20987;BME280;10652;50.306;8.570;2023-07-02T06:47:25;97422.34;;;25.83;43.10
20987;BME280;10652;50.306;8.570;2023-07-02T06:51:27;97428.63;;;25.90;40.23
20987;BME280;10652;50.306;8.570;2023-07-02T06:55:31;97425.75;;;26.44;40.38
20987;BME280;10652;50.306;8.570;2023-07-02T06:59:33;97430.34;;;28.00;37.57
20987;BME280;10652;50.306;8.570;2023-07-02T07:03:35;97438.00;;;28.59;36.80
20987;BME280;10652;50.306;8.570;2023-07-02T07:07:38;97446.59;;;29.23;34.65
20987;BME280;10652;50.306;8.570;2023-07-02T07:11:40;97441.84;;;27.24;36.54
20987;BME280;10652;50.306;8.570;2023-07-02T07:15:42;97446.41;;;27.23;36.41
20987;BME280;10652;50.306;8.570;2023-07-02T07:19:44;97443.94;;;26.71;38.00
20987;BME280;10652;50.306;8.570;2023-07-02T07:23:46;97441.28;;;25.44;39.67
20987;BME280;10652;50.306;8.570;2023-07-02T07:27:48;97446.19;;;23.77;41.75
20987;BME280;10652;50.306;8.570;2023-07-02T07:31:50;97451.91;;;22.83;44.24
20987;BME280;10652;50.306;8.570;2023-07-02T07:35:53;97453.72;;;22.07;45.52
20987;BME280;10652;50.306;8.570;2023-07-02T07:39:55;97447.19;;;21.58;47.28
20987;BME280;10652;50.306;8.570;2023-07-02T07:43:57;97450.63;;;20.79;47.97
20987;BME280;10652;50.306;8.570;2023-07-02T07:48:01;97450.88;;;20.22;50.06
20987;BME280;10652;50.306;8.570;2023-07-02T07:52:03;97452.56;;;20.23;55.42
20987;BME280;10652;50.306;8.570;2023-07-02T07:56:08;97454.59;;;20.75;53.43
20987;BME280;10652;50.306;8.570;2023-07-02T08:00:11;97450.63;;;21.15;52.37
20987;BME280;10652;50.306;8.570;2023-07-02T08:04:19;97460.84;;;21.37;49.02
20987;BME280;10652;50.306;8.570;2023-07-02T08:08:21;97456.75;;;21.25;49.16
20987;BME280;10652;50.306;8.570;2023-07-02T08:12:24;97475.00;;;21.29;48.59
20987;BME280;10652;50.306;8.570;2023-07-02T08:16:26;97471.88;;;21.34;49.06
20987;BME280;10652;50.306;8.570;2023-07-02T08:20:28;97463.22;;;21.04;48.38
20987;BME280;10652;50.306;8.570;2023-07-02T08:24:30;97476.91;;;21.19;48.78
20987;BME280;10652;50.306;8.570;2023-07-02T08:28:33;97475.59;;;21.41;47.72
20987;BME280;10652;50.306;8.570;2023-07-02T08:32:35;97473.91;;;21.22;48.82
20987;BME280;10652;50.306;8.570;2023-07-02T08:36:37;97477.44;;;21.23;48.29
20987;BME280;10652;50.306;8.570;2023-07-02T08:40:40;97481.47;;;21.27;47.70
20987;BME280;10652;50.306;8.570;2023-07-02T08:44:45;97473.53;;;21.35;47.61
20987;BME280;10652;50.306;8.570;2023-07-02T08:48:49;97468.69;;;21.48;47.28
20987;BME280;10652;50.306;8.570;2023-07-02T08:52:53;97479.06;;;21.51;47.43
20987;BME280;10652;50.306;8.570;2023-07-02T08:56:56;97490.56;;;21.34;46.88
20987;BME280;10652;50.306;8.570;2023-07-02T09:01:08;97483.59;;;21.41;47.14
20987;BME280;10652;50.306;8.570;2023-07-02T09:05:11;97485.91;;;21.36;46.71
20987;BME280;10652;50.306;8.570;2023-07-02T09:09:13;97488.81;;;21.42;46.65
20987;BME280;10652;50.306;8.570;2023-07-02T09:13:15;97489.59;;;21.70;46.43
20987;BME280;10652;50.306;8.570;2023-07-02T09:17:18;97488.59;;;21.54;44.73
20987;BME280;10652;50.306;8.570;2023-07-02T09:21:20;97497.81;;;21.24;45.43
20987;BME280;10652;50.306;8.570;2023-07-02T09:25:35;97499.50;;;21.25;45.66
20987;BME280;10652;50.306;8.570;2023-07-02T09:29:38;97488.34;;;21.29;46.19
20987;BME280;10652;50.306;8.570;2023-07-02T09:33:40;97491.25;;;21.54;45.25
20987;BME280;10652;50.306;8.570;2023-07-02T09:37:43;97494.56;;;21.47;44.52
20987;BME280;10652;50.306;8.570;2023-07-02T09:41:48;97495.22;;;21.32;44.36
20987;BME280;10652;50.306;8.570;2023-07-02T09:45:54;97484.72;;;21.48;44.67
20987;BME280;10652;50.306;8.570;2023-07-02T09:50:03;97482.25;;;21.37;44.67
20987;BME280;10652;50.306;8.570;2023-07-02T09:54:07;97485.84;;;21.45;44.75
20987;BME280;10652;50.306;8.570;2023-07-02T09:58:10;97482.84;;;21.84;45.07
20987;BME280;10652;50.306;8.570;2023-07-02T10:02:13;97486.50;;;22.09;43.24
20987;BME280;10652;50.306;8.570;2023-07-02T10:06:16;97480.16;;;22.10;43.38
20987;BME280;10652;50.306;8.570;2023-07-02T10:10:28;97484.66;;;22.35;41.11
20987;BME280;10652;50.306;8.570;2023-07-02T10:14:41;97483.41;;;22.47;41.80
20987;BME280;10652;50.306;8.570;2023-07-02T10:18:43;97482.41;;;22.48;40.89
20987;BME280;10652;50.306;8.570;2023-07-02T10:22:47;97490.72;;;22.37;41.86
20987;BME280;10652;50.306;8.570;2023-07-02T10:26:59;97494.97;;;22.48;42.68
20987;BME280;10652;50.306;8.570;2023-07-02T10:31:01;97493.59;;;22.44;42.61
20987;BME280;10652;50.306;8.570;2023-07-02T10:35:18;97487.00;;;22.30;42.93
20987;BME280;10652;50.306;8.570;2023-07-02T10:39:21;97484.16;;;22.31;43.25
20987;BME280;10652;50.306;8.570;2023-07-02T10:43:32;97488.75;;;22.47;43.22
20987;BME280;10652;50.306;8.570;2023-07-02T10:47:39;97482.88;;;22.86;43.45
20987;BME280;10652;50.306;8.570;2023-07-02T10:51:41;97481.31;;;23.09;42.32
20987;BME280;10652;50.306;8.570;2023-07-02T10:55:44;97489.88;;;22.70;42.08
20987;BME280;10652;50.306;8.570;2023-07-02T10:59:47;97492.03;;;22.33;43.50
20987;BME280;10652;50.306;8.570;2023-07-02T11:03:59;97484.47;;;22.03;43.90
20987;BME280;10652;50.306;8.570;2023-07-02T11:08:08;97499.63;;;21.76;44.60
20987;BME280;10652;50.306;8.570;2023-07-02T11:12:10;97484.69;;;21.66;44.88
20987;BME280;10652;50.306;8.570;2023-07-02T11:16:19;97487.16;;;22.03;45.22
20987;BME280;10652;50.306;8.570;2023-07-02T11:20:22;97489.72;;;22.38;44.29
20987;BME280;10652;50.306;8.570;2023-07-02T11:24:35;97480.19;;;22.77;43.35
20987;BME280;10652;50.306;8.570;2023-07-02T11:28:48;97482.84;;;23.11;42.06
20987;BME280;10652;50.306;8.570;2023-07-02T11:32:54;97477.69;;;23.42;42.70
20987;BME280;10652;50.306;8.570;2023-07-02T11:36:56;97476.38;;;23.54;42.14
20987;BME280;10652;50.306;8.570;2023-07-02T11:40:58;97476.19;;;23.64;41.30
20987;BME280;10652;50.306;8.570;2023-07-02T11:45:01;97476.53;;;23.53;40.13
20987;BME280;10652;50.306;8.570;2023-07-02T11:49:04;97481.34;;;23.49;40.18
20987;BME280;10652;50.306;8.570;2023-07-02T11:53:12;97486.66;;;23.17;39.03
20987;BME280;10652;50.306;8.570;2023-07-02T11:57:14;97492.69;;;22.61;40.44
20987;BME280;10652;50.306;8.570;2023-07-02T12:01:16;97497.22;;;22.68;41.90
20987;BME280;10652;50.306;8.570;2023-07-02T12:05:19;97482.84;;;23.11;40.86
20987;BME280;10652;50.306;8.570;2023-07-02T12:09:21;97488.06;;;23.53;41.08
20987;BME280;10652;50.306;8.570;2023-07-02T12:13:23;97496.09;;;23.53;38.65
20987;BME280;10652;50.306;8.570;2023-07-02T12:17:25;97495.41;;;23.35;40.07
20987;BME280;10652;50.306;8.570;2023-07-02T12:21:27;97502.09;;;23.31;40.12
20987;BME280;10652;50.306;8.570;2023-07-02T12:25:29;97504.44;;;23.18;40.53
20987;BME280;10652;50.306;8.570;2023-07-02T12:29:31;97503.72;;;23.00;40.43
20987;BME280;10652;50.306;8.570;2023-07-02T12:33:33;97503.06;;;22.98;40.36
20987;BME280;10652;50.306;8.570;2023-07-02T12:37:46;97500.06;;;23.17;40.53
20987;BME280;10652;50.306;8.570;2023-07-02T12:41:48;97497.66;;;23.56;39.38
20987;BME280;10652;50.306;8.570;2023-07-02T12:45:50;97489.44;;;23.90;40.39
20987;BME280;10652;50.306;8.570;2023-07-02T12:49:53;97483.69;;;24.17;38.70
20987;BME280;10652;50.306;8.570;2023-07-02T12:53:55;97489.56;;;24.29;38.72
20987;BME280;10652;50.306;8.570;2023-07-02T12:57:57;97498.13;;;24.08;36.71
20987;BME280;10652;50.306;8.570;2023-07-02T13:01:59;97492.94;;;23.98;37.33
20987;BME280;10652;50.306;8.570;2023-07-02T13:06:01;97500.66;;;23.85;35.86
20987;BME280;10652;50.306;8.570;2023-07-02T13:10:04;97501.69;;;23.68;35.59
20987;BME280;10652;50.306;8.570;2023-07-02T13:14:06;97504.16;;;23.53;36.38
20987;BME280;10652;50.306;8.570;2023-07-02T13:18:08;97503.53;;;23.76;36.24
20987;BME280;10652;50.306;8.570;2023-07-02T13:22:10;97501.38;;;23.71;37.28
20987;BME280;10652;50.306;8.570;2023-07-02T13:26:13;97517.13;;;23.74;38.06
20987;BME280;10652;50.306;8.570;2023-07-02T13:30:15;97526.66;;;23.77;37.86
20987;BME280;10652;50.306;8.570;2023-07-02T13:34:17;97513.94;;;23.79;38.59
20987;BME280;10652;50.306;8.570;2023-07-02T13:38:19;97523.13;;;23.60;36.69
20987;BME280;10652;50.306;8.570;2023-07-02T13:42:21;97523.09;;;23.52;38.29
20987;BME280;10652;50.306;8.570;2023-07-02T13:46:23;97517.56;;;23.53;38.36
20987;BME280;10652;50.306;8.570;2023-07-02T13:50:25;97517.53;;;23.29;37.29
20987;BME280;10652;50.306;8.570;2023-07-02T13:54:28;97522.97;;;22.95;37.84
20987;BME280;10652;50.306;8.570;2023-07-02T14:02:57;97516.44;;;22.98;39.43
20987;BME280;10652;50.306;8.570;2023-07-02T14:07:02;97522.34;;;23.17;39.25
20987;BME280;10652;50.306;8.570;2023-07-02T14:11:04;97518.81;;;23.09;39.46
20987;BME280;10652;50.306;8.570;2023-07-02T14:15:09;97523.50;;;23.07;39.38
20987;BME280;10652;50.306;8.570;2023-07-02T14:19:11;97519.81;;;23.08;37.94
20987;BME280;10652;50.306;8.570;2023-07-02T14:23:14;97516.59;;;22.96;38.38
20987;BME280;10652;50.306;8.570;2023-07-02T14:27:16;97516.81;;;23.03;40.21
20987;BME280;10652;50.306;8.570;2023-07-02T14:31:18;97528.53;;;23.10;39.90
20987;BME280;10652;50.306;8.570;2023-07-02T14:35:20;97527.56;;;23.19;39.40
20987;BME280;10652;50.306;8.570;2023-07-02T14:39:27;97527.19;;;23.06;39.42
20987;BME280;10652;50.306;8.570;2023-07-02T14:43:29;97521.84;;;23.06;39.27
20987;BME280;10652;50.306;8.570;2023-07-02T14:47:32;97522.13;;;22.95;39.16
20987;BME280;10652;50.306;8.570;2023-07-02T14:51:34;97521.84;;;23.14;39.61
20987;BME280;10652;50.306;8.570;2023-07-02T14:55:36;97515.84;;;23.20;40.09
20987;BME280;10652;50.306;8.570;2023-07-02T14:59:38;97519.50;;;23.19;38.58
20987;BME280;10652;50.306;8.570;2023-07-02T15:03:40;97520.22;;;23.29;39.14
20987;BME280;10652;50.306;8.570;2023-07-02T15:07:43;97510.50;;;23.36;38.68
20987;BME280;10652;50.306;8.570;2023-07-02T15:11:45;97513.88;;;23.46;38.87
20987;BME280;10652;50.306;8.570;2023-07-02T15:15:48;97516.63;;;23.71;38.54
20987;BME280;10652;50.306;8.570;2023-07-02T15:19:51;97508.50;;;23.46;38.29
20987;BME280;10652;50.306;8.570;2023-07-02T15:23:53;97508.50;;;23.46;38.29
20987;BME280;10652;50.306;8.570;2023-07-02T15:27:55;97508.00;;;23.43;39.54
20987;BME280;10652;50.306;8.570;2023-07-02T15:31:58;97515.34;;;23.16;39.75
20987;BME280;10652;50.306;8.570;2023-07-02T15:36:00;97509.22;;;22.90;39.41
20987;BME280;10652;50.306;8.570;2023-07-02T15:40:03;97515.34;;;22.83;40.01
20987;BME280;10652;50.306;8.570;2023-07-02T15:44:05;97507.72;;;22.88;39.77
20987;BME280;10652;50.306;8.570;2023-07-02T15:48:07;97510.06;;;22.99;39.74
20987;BME280;10652;50.306;8.570;2023-07-02T15:52:10;97505.25;;;23.02;39.47
20987;BME280;10652;50.306;8.570;2023-07-02T15:56:12;97505.13;;;23.12;40.04
20987;BME280;10652;50.306;8.570;2023-07-02T16:00:14;97493.00;;;23.00;39.84
20987;BME280;10652;50.306;8.570;2023-07-02T16:04:17;97502.25;;;22.71;40.02
20987;BME280;10652;50.306;8.570;2023-07-02T16:08:20;97503.97;;;22.47;40.64
20987;BME280;10652;50.306;8.570;2023-07-02T16:12:22;97509.69;;;22.52;40.28
20987;BME280;10652;50.306;8.570;2023-07-02T16:16:24;97507.97;;;22.43;40.04
20987;BME280;10652;50.306;8.570;2023-07-02T16:20:26;97495.69;;;22.32;40.49
20987;BME280;10652;50.306;8.570;2023-07-02T16:24:30;97487.03;;;22.38;41.58
20987;BME280;10652;50.306;8.570;2023-07-02T16:28:34;97495.34;;;22.27;42.13
20987;BME280;10652;50.306;8.570;2023-07-02T16:32:37;97487.81;;;22.05;41.34
20987;BME280;10652;50.306;8.570;2023-07-02T16:36:40;97482.56;;;21.95;42.77
20987;BME280;10652;50.306;8.570;2023-07-02T16:40:45;97482.56;;;21.95;43.35
20987;BME280;10652;50.306;8.570;2023-07-02T16:44:48;97484.94;;;21.98;41.82
20987;BME280;10652;50.306;8.570;2023-07-02T16:48:50;97486.28;;;22.20;41.54
20987;BME280;10652;50.306;8.570;2023-07-02T16:52:52;97495.28;;;22.19;41.82
20987;BME280;10652;50.306;8.570;2023-07-02T16:56:59;97486.03;;;21.87;41.12
20987;BME280;10652;50.306;8.570;2023-07-02T17:01:02;97490.44;;;21.71;42.57
20987;BME280;10652;50.306;8.570;2023-07-02T17:05:04;97496.97;;;21.76;41.70
20987;BME280;10652;50.306;8.570;2023-07-02T17:09:17;97491.34;;;21.62;42.02
20987;BME280;10652;50.306;8.570;2023-07-02T17:13:20;97496.94;;;21.51;43.19
20987;BME280;10652;50.306;8.570;2023-07-02T17:17:24;97488.28;;;21.39;42.30
20987;BME280;10652;50.306;8.570;2023-07-02T17:21:29;97487.81;;;21.26;42.99
20987;BME280;10652;50.306;8.570;2023-07-02T17:25:31;97477.88;;;21.18;42.79
20987;BME280;10652;50.306;8.570;2023-07-02T17:29:33;97486.59;;;21.20;42.85
20987;BME280;10652;50.306;8.570;2023-07-02T17:33:35;97480.94;;;21.23;43.04
20987;BME280;10652;50.306;8.570;2023-07-02T17:37:37;97483.84;;;21.30;42.74
20987;BME280;10652;50.306;8.570;2023-07-02T17:41:39;97485.22;;;21.34;43.04
20987;BME280;10652;50.306;8.570;2023-07-02T17:45:51;97480.53;;;21.36;43.34
20987;BME280;10652;50.306;8.570;2023-07-02T17:49:54;97485.97;;;21.26;43.27
20987;BME280;10652;50.306;8.570;2023-07-02T17:53:56;97484.38;;;21.16;43.42
20987;BME280;10652;50.306;8.570;2023-07-02T17:57:58;97490.00;;;21.13;43.54
20987;BME280;10652;50.306;8.570;2023-07-02T18:02:01;97488.34;;;21.12;44.04
20987;BME280;10652;50.306;8.570;2023-07-02T18:06:04;97486.97;;;21.08;44.55
20987;BME280;10652;50.306;8.570;2023-07-02T18:10:07;97485.28;;;21.07;44.48
20987;BME280;10652;50.306;8.570;2023-07-02T18:14:09;97483.91;;;21.02;44.09
20987;BME280;10652;50.306;8.570;2023-07-02T18:18:11;97479.47;;;20.93;43.87
20987;BME280;10652;50.306;8.570;2023-07-02T18:22:14;97482.66;;;20.79;44.91
20987;BME280;10652;50.306;8.570;2023-07-02T18:26:16;97478.44;;;20.67;44.16
20987;BME280;10652;50.306;8.570;2023-07-02T18:30:18;97481.75;;;20.61;44.32
20987;BME280;10652;50.306;8.570;2023-07-02T18:34:20;97484.63;;;20.68;44.55
20987;BME280;10652;50.306;8.570;2023-07-02T18:38:23;97484.38;;;20.71;44.64
20987;BME280;10652;50.306;8.570;2023-07-02T18:42:25;97487.59;;;20.74;44.88
20987;BME280;10652;50.306;8.570;2023-07-02T18:46:27;97493.47;;;20.78;44.94
20987;BME280;10652;50.306;8.570;2023-07-02T18:50:30;97490.28;;;20.65;45.32
20987;BME280;10652;50.306;8.570;2023-07-02T18:54:33;97487.16;;;20.42;45.51
20987;BME280;10652;50.306;8.570;2023-07-02T18:58:35;97480.50;;;20.18;46.01
20987;BME280;10652;50.306;8.570;2023-07-02T19:02:38;97485.75;;;20.01;46.54
20987;BME280;10652;50.306;8.570;2023-07-02T19:06:41;97488.53;;;19.90;47.36
20987;BME280;10652;50.306;8.570;2023-07-02T19:10:44;97494.19;;;19.77;47.46
20987;BME280;10652;50.306;8.570;2023-07-02T19:14:46;97483.41;;;19.69;47.70
20987;BME280;10652;50.306;8.570;2023-07-02T19:18:48;97495.78;;;19.51;48.01
20987;BME280;10652;50.306;8.570;2023-07-02T19:22:50;97492.56;;;19.38;48.32
20987;BME280;10652;50.306;8.570;2023-07-02T19:26:53;97486.91;;;19.21;49.16
20987;BME280;10652;50.306;8.570;2023-07-02T19:30:55;97496.16;;;19.17;49.31
20987;BME280;10652;50.306;8.570;2023-07-02T19:34:58;97501.78;;;19.14;49.44
20987;BME280;10652;50.306;8.570;2023-07-02T19:39:00;97501.06;;;19.03;50.11
20987;BME280;10652;50.306;8.570;2023-07-02T19:43:03;97497.94;;;18.88;50.61
20987;BME280;10652;50.306;8.570;2023-07-02T19:47:05;97504.03;;;18.69;51.08
20987;BME280;10652;50.306;8.570;2023-07-02T19:51:07;97507.50;;;18.51;52.33
20987;BME280;10652;50.306;8.570;2023-07-02T19:55:10;97509.22;;;18.31;53.03
20987;BME280;10652;50.306;8.570;2023-07-02T19:59:13;97515.97;;;18.14;53.88
20987;BME280;10652;50.306;8.570;2023-07-02T20:03:15;97513.53;;;18.02;54.86
20987;BME280;10652;50.306;8.570;2023-07-02T20:07:18;97516.97;;;17.92;55.94
20987;BME280;10652;50.306;8.570;2023-07-02T20:11:20;97522.50;;;17.80;55.05
20987;BME280;10652;50.306;8.570;2023-07-02T20:15:22;97521.31;;;17.73;54.87
20987;BME280;10652;50.306;8.570;2023-07-02T20:19:24;97525.69;;;17.63;54.25
20987;BME280;10652;50.306;8.570;2023-07-02T20:23:28;97521.22;;;17.63;55.82
20987;BME280;10652;50.306;8.570;2023-07-02T20:27:31;97519.22;;;17.56;53.97
20987;BME280;10652;50.306;8.570;2023-07-02T20:31:33;97520.47;;;17.40;53.94
20987;BME280;10652;50.306;8.570;2023-07-02T20:35:41;97526.91;;;17.27;54.11
20987;BME280;10652;50.306;8.570;2023-07-02T20:39:44;97533.97;;;17.17;54.51
20987;BME280;10652;50.306;8.570;2023-07-02T20:43:48;97533.03;;;17.06;54.43
20987;BME280;10652;50.306;8.570;2023-07-02T20:47:51;97524.22;;;16.95;54.35
20987;BME280;10652;50.306;8.570;2023-07-02T20:51:53;97528.63;;;16.85;54.82
20987;BME280;10652;50.306;8.570;2023-07-02T20:55:56;97534.66;;;16.76;55.07
20987;BME280;10652;50.306;8.570;2023-07-02T20:59:58;97539.59;;;16.69;56.32
20987;BME280;10652;50.306;8.570;2023-07-02T21:04:01;97536.34;;;16.65;56.46
20987;BME280;10652;50.306;8.570;2023-07-02T21:08:08;97540.22;;;16.61;57.28
20987;BME280;10652;50.306;8.570;2023-07-02T21:12:10;97549.41;;;16.57;57.06
20987;BME280;10652;50.306;8.570;2023-07-02T21:16:12;97548.88;;;16.52;56.76
20987;BME280;10652;50.306;8.570;2023-07-02T21:20:15;97551.75;;;16.49;56.81
20987;BME280;10652;50.306;8.570;2023-07-02T21:24:17;97558.03;;;16.48;57.13
20987;BME280;10652;50.306;8.570;2023-07-02T21:28:19;97565.84;;;16.50;56.64
20987;BME280;10652;50.306;8.570;2023-07-02T21:32:23;97562.50;;;16.48;56.49